Cle Elum, Washington
Current Conditions -  °F | °C
As of 11:00 AM on Tuesday 21 Oct 2014 (Local Time) from KELN Reporting Station
Haze Haze  
Wind Chill: 49°   Ceiling: 200
Heat Index: 49°   Visibility: 4mi
Dew Point: 45°   Wind: 0mph
Humidity: 86%   Direction: NA
Pressure: 29.93"   Gusts: NA
Location:  47.2°N, 120.94°W
Report Text: KELN 211800Z AUTO 00000KT 4SM BR OVC002 09/07 A2993 RMK AO2 T00940072
Loading
Personal Weather Stations






























Interactive Weather Map
Tropical Storm Tracking
New forecast layout! Learn more

10-Day Weather Forecast

Advertisements
Track Severe Weather on mobile